createdAt,value
2024-04-12T00:00:49.158Z,13.44
2024-04-12T00:01:49.258Z,13.47
2024-04-12T00:02:49.334Z,13.53
2024-04-12T00:03:49.486Z,13.61
2024-04-12T00:04:49.288Z,13.67
2024-04-12T00:05:49.352Z,13.75
2024-04-12T00:06:49.355Z,13.62
2024-04-12T00:07:49.429Z,13.60
2024-04-12T00:08:49.517Z,13.51
2024-04-12T00:09:49.825Z,13.40
2024-04-12T00:10:49.660Z,13.37
2024-04-12T00:11:49.754Z,13.25
2024-04-12T00:12:49.727Z,12.88
2024-04-12T00:13:49.742Z,12.70
2024-04-12T00:14:49.819Z,12.71
2024-04-12T00:15:49.800Z,12.70
2024-04-12T00:16:49.779Z,12.70
2024-04-12T00:17:50.072Z,12.78
2024-04-12T00:18:49.810Z,12.77
2024-04-12T00:19:49.829Z,12.87
2024-04-12T00:20:54.920Z,12.99
2024-04-12T00:21:49.856Z,13.05
2024-04-12T00:22:49.886Z,13.15
2024-04-12T00:23:49.897Z,13.20
2024-04-12T00:24:49.876Z,13.25
2024-04-12T00:25:54.894Z,13.19
2024-04-12T00:26:49.944Z,13.25
2024-04-12T00:27:50.534Z,13.36
2024-04-12T00:28:49.881Z,13.49
2024-04-12T00:29:49.895Z,13.55
2024-04-12T00:30:49.914Z,13.62
2024-04-12T00:31:49.872Z,13.70
2024-04-12T00:32:51.056Z,13.74
2024-04-12T00:33:50.041Z,13.79
2024-04-12T00:34:50.382Z,13.82
2024-04-12T00:35:50.057Z,13.89
2024-04-12T00:36:50.067Z,13.90
2024-04-12T00:37:50.104Z,13.92
2024-04-12T00:38:50.177Z,13.95
2024-04-12T00:39:51.209Z,13.95
2024-04-12T00:40:50.193Z,13.99
2024-04-12T00:41:50.249Z,14.01
2024-04-12T00:42:50.240Z,14.06
2024-04-12T00:43:50.277Z,14.06
2024-04-12T00:44:50.363Z,14.08
2024-04-12T00:45:50.387Z,13.92
2024-04-12T00:46:50.413Z,13.88
2024-04-12T00:47:50.543Z,13.89
2024-04-12T00:48:50.592Z,13.62
2024-04-12T00:49:50.794Z,13.53
2024-04-12T00:50:52.941Z,13.33
2024-04-12T00:51:50.639Z,13.08
2024-04-12T00:52:50.596Z,12.94
2024-04-12T00:53:50.666Z,12.58
2024-04-12T00:54:50.600Z,12.30
2024-04-12T00:55:50.640Z,12.26
2024-04-12T00:56:50.653Z,12.27
2024-04-12T00:57:50.673Z,12.36
2024-04-12T00:58:50.634Z,12.22
2024-04-12T00:59:50.654Z,12.15
2024-04-12T01:00:50.667Z,12.20
2024-04-12T01:01:50.632Z,12.37
2024-04-12T01:02:50.998Z,12.54
2024-04-12T01:03:50.904Z,12.67
2024-04-12T01:04:50.626Z,12.67
2024-04-12T01:05:50.690Z,12.71
2024-04-12T01:06:50.629Z,12.85
2024-04-12T01:07:51.771Z,12.94
2024-04-12T01:08:50.642Z,13.03
2024-04-12T01:09:50.644Z,13.13
2024-04-12T01:10:50.699Z,13.20
2024-04-12T01:11:50.669Z,13.29
2024-04-12T01:12:50.643Z,13.30
2024-04-12T01:13:50.634Z,13.32
2024-04-12T01:14:50.726Z,13.37
2024-04-12T01:15:50.656Z,13.40
2024-04-12T01:16:50.659Z,13.15
2024-04-12T01:17:50.676Z,12.91
2024-04-12T01:18:50.752Z,12.80
2024-04-12T01:19:50.714Z,12.47
2024-04-12T01:20:50.791Z,12.29
2024-04-12T01:21:50.832Z,12.12
2024-04-12T01:22:50.879Z,12.15
2024-04-12T01:23:50.962Z,12.03
2024-04-12T01:24:50.993Z,12.08
2024-04-12T01:25:51.028Z,12.27
2024-04-12T01:26:51.153Z,12.44
2024-04-12T01:27:51.115Z,12.61
2024-04-12T01:28:51.182Z,12.72
2024-04-12T01:29:51.267Z,12.82
2024-04-12T01:30:51.264Z,12.91
2024-04-12T01:31:51.275Z,13.02
2024-04-12T01:32:51.395Z,13.08
2024-04-12T01:33:51.396Z,13.16
2024-04-12T01:34:51.408Z,13.23
2024-04-12T01:35:51.501Z,13.30
2024-04-12T01:36:51.644Z,13.34
2024-04-12T01:37:51.616Z,13.42
2024-04-12T01:38:51.739Z,13.44
2024-04-12T01:39:51.620Z,13.51
2024-04-12T01:40:51.640Z,13.54
2024-04-12T01:41:51.743Z,13.57
2024-04-12T01:42:51.717Z,13.55
2024-04-12T01:43:51.729Z,13.53
2024-04-12T01:44:51.837Z,13.53
2024-04-12T01:45:51.847Z,13.50
2024-04-12T01:46:51.904Z,13.50
2024-04-12T01:47:52.034Z,13.47
2024-04-12T01:48:52.141Z,13.47
2024-04-12T01:49:52.081Z,13.50
2024-04-12T01:50:57.236Z,13.50
2024-04-12T01:51:52.140Z,13.51
2024-04-12T01:52:52.129Z,13.51
2024-04-12T01:53:52.187Z,13.51
2024-04-12T01:54:52.155Z,13.53
2024-04-12T01:55:52.546Z,13.54
2024-04-12T01:56:52.237Z,13.51
2024-04-12T01:57:52.146Z,13.51
2024-04-12T01:58:52.144Z,13.49
2024-04-12T01:59:52.191Z,13.49
2024-04-12T02:00:52.210Z,13.50
2024-04-12T02:01:52.254Z,13.44
2024-04-12T02:02:52.395Z,13.44
2024-04-12T02:03:52.416Z,13.42
2024-04-12T02:04:52.334Z,13.22
2024-04-12T02:05:57.421Z,13.03
2024-04-12T02:06:52.339Z,12.96
2024-04-12T02:07:52.339Z,12.94
2024-04-12T02:08:52.376Z,13.00
2024-04-12T02:09:52.355Z,13.00
2024-04-12T02:10:52.363Z,12.89
2024-04-12T02:11:52.409Z,12.78
2024-04-12T02:12:52.351Z,12.58
2024-04-12T02:13:52.388Z,12.39
2024-04-12T02:14:52.513Z,12.26
2024-04-12T02:15:52.505Z,12.22
2024-04-12T02:16:52.716Z,12.20
2024-04-12T02:17:52.656Z,12.18
2024-04-12T02:18:52.703Z,12.15
2024-04-12T02:19:52.696Z,12.09
2024-04-12T02:20:52.808Z,12.06
2024-04-12T02:21:52.751Z,12.02
2024-04-12T02:22:52.793Z,12.12
2024-04-12T02:23:52.859Z,12.10
2024-04-12T02:24:52.914Z,12.08
2024-04-12T02:25:52.937Z,12.03
2024-04-12T02:26:53.051Z,12.01
2024-04-12T02:27:53.025Z,11.98
2024-04-12T02:28:53.073Z,12.06
2024-04-12T02:29:53.208Z,12.15
2024-04-12T02:30:53.192Z,12.18
2024-04-12T02:31:53.307Z,12.29
2024-04-12T02:32:53.410Z,12.41
2024-04-12T02:33:53.374Z,12.51
2024-04-12T02:34:53.359Z,12.61
2024-04-12T02:35:53.404Z,12.70
2024-04-12T02:36:53.462Z,12.77
2024-04-12T02:37:53.474Z,12.78
2024-04-12T02:38:53.551Z,12.87
2024-04-12T02:39:53.588Z,12.91
2024-04-12T02:40:53.656Z,12.95
2024-04-12T02:41:53.800Z,12.98
2024-04-12T02:42:53.752Z,13.00
2024-04-12T02:43:53.976Z,13.02
2024-04-12T02:44:53.920Z,12.99
2024-04-12T02:45:53.911Z,12.99
2024-04-12T02:46:53.903Z,13.00
2024-04-12T02:47:53.972Z,13.03
2024-04-12T02:48:54.175Z,13.05
2024-04-12T02:49:53.990Z,13.06
2024-04-12T02:50:54.235Z,13.09
2024-04-12T02:51:54.053Z,13.08
2024-04-12T02:52:54.090Z,13.06
2024-04-12T02:53:54.149Z,12.96
2024-04-12T02:54:54.156Z,12.82
2024-04-12T02:55:54.214Z,12.82
2024-04-12T02:56:54.308Z,12.75
2024-04-12T02:57:54.279Z,12.68
2024-04-12T02:58:54.958Z,12.64
2024-04-12T02:59:54.364Z,12.68
2024-04-12T03:00:54.405Z,12.58
2024-04-12T03:01:54.401Z,12.54
2024-04-12T03:02:54.488Z,12.54
2024-04-12T03:03:54.461Z,12.25
2024-04-12T03:04:54.526Z,11.96
2024-04-12T03:05:54.450Z,11.75
2024-04-12T03:06:54.480Z,11.56
2024-04-12T03:07:54.509Z,11.53
2024-04-12T03:08:54.545Z,11.39
2024-04-12T03:09:54.568Z,11.43
2024-04-12T03:10:54.559Z,11.41
2024-04-12T03:11:54.605Z,11.46
2024-04-12T03:12:54.594Z,11.56
2024-04-12T03:13:54.639Z,11.73
2024-04-12T03:14:54.708Z,11.81
2024-04-12T03:15:54.775Z,11.96
2024-04-12T03:16:54.836Z,12.02
2024-04-12T03:17:54.862Z,12.10
2024-04-12T03:18:54.879Z,12.16
2024-04-12T03:19:54.837Z,12.20
2024-04-12T03:20:54.909Z,12.23
2024-04-12T03:21:54.949Z,12.22
2024-04-12T03:22:54.998Z,12.18
2024-04-12T03:23:55.043Z,12.16
2024-04-12T03:24:55.043Z,12.05
2024-04-12T03:25:55.097Z,11.85
2024-04-12T03:26:55.150Z,11.84
2024-04-12T03:27:55.090Z,11.77
2024-04-12T03:28:55.122Z,11.68
2024-04-12T03:29:55.173Z,11.63
2024-04-12T03:30:55.237Z,11.46
2024-04-12T03:31:55.252Z,11.54
2024-04-12T03:32:55.305Z,11.54
2024-04-12T03:33:55.240Z,11.61
2024-04-12T03:34:55.241Z,11.61
2024-04-12T03:35:55.335Z,11.63
2024-04-12T03:36:55.319Z,11.64
2024-04-12T03:37:55.328Z,11.67
2024-04-12T03:38:55.365Z,11.71
2024-04-12T03:39:55.379Z,11.73
2024-04-12T03:40:55.377Z,11.64
2024-04-12T03:41:55.428Z,11.63
2024-04-12T03:42:55.393Z,11.64
2024-04-12T03:43:55.410Z,11.71
2024-04-12T03:44:55.424Z,11.78
2024-04-12T03:45:55.478Z,11.88
2024-04-12T03:46:55.487Z,11.98
2024-04-12T03:47:55.774Z,12.03
2024-04-12T03:48:55.584Z,12.12
2024-04-12T03:49:55.558Z,12.15
2024-04-12T03:50:55.665Z,11.86
2024-04-12T03:51:55.754Z,11.99
2024-04-12T03:52:55.707Z,11.81
2024-04-12T03:53:55.781Z,11.71
2024-04-12T03:54:55.813Z,11.58
2024-04-12T03:55:55.843Z,11.51
2024-04-12T03:56:55.868Z,11.51
2024-04-12T03:57:55.871Z,11.51
2024-04-12T03:58:55.908Z,11.44
2024-04-12T03:59:55.974Z,11.37
2024-04-12T04:00:55.998Z,11.15
2024-04-12T04:01:56.030Z,11.27
2024-04-12T04:02:56.063Z,11.34
2024-04-12T04:03:56.149Z,11.27
2024-04-12T04:04:56.160Z,11.40
2024-04-12T04:05:56.200Z,11.18
2024-04-12T04:07:01.310Z,11.34
2024-04-12T04:07:56.248Z,11.47
2024-04-12T04:08:56.329Z,11.56
2024-04-12T04:09:56.264Z,11.66
2024-04-12T04:10:56.284Z,11.77
2024-04-12T04:11:56.262Z,11.85
2024-04-12T04:12:56.259Z,11.93
2024-04-12T04:13:56.268Z,12.03
2024-04-12T04:14:56.297Z,12.06
2024-04-12T04:15:56.272Z,12.09
2024-04-12T04:16:56.266Z,12.10
2024-04-12T04:17:56.462Z,12.15
2024-04-12T04:18:56.368Z,12.18
2024-04-12T04:19:56.271Z,12.19
2024-04-12T04:20:56.346Z,12.23
2024-04-12T04:21:56.364Z,12.26
2024-04-12T04:22:56.414Z,12.29
2024-04-12T04:23:56.504Z,12.29
2024-04-12T04:24:56.578Z,12.32
2024-04-12T04:25:56.910Z,12.35
2024-04-12T04:26:56.664Z,12.32
2024-04-12T04:27:57.632Z,12.35
2024-04-12T04:28:56.717Z,12.30
2024-04-12T04:29:57.089Z,12.16
2024-04-12T04:30:56.827Z,12.19
2024-04-12T04:31:56.931Z,11.98
2024-04-12T04:32:57.022Z,11.88
2024-04-12T04:34:04.295Z,11.67
2024-04-12T04:35:04.280Z,11.63
2024-04-12T04:36:04.332Z,11.68
2024-04-12T04:37:10.882Z,11.77
2024-04-12T04:38:05.339Z,11.84
2024-04-12T04:39:04.327Z,11.91
2024-04-12T04:40:04.309Z,11.92
2024-04-12T04:41:04.297Z,11.93
2024-04-12T04:42:04.336Z,11.96
2024-04-12T04:43:04.311Z,11.96
2024-04-12T04:44:04.298Z,12.01
2024-04-12T04:45:04.463Z,12.05
2024-04-12T04:46:04.321Z,12.10
2024-04-12T04:47:04.313Z,12.15
2024-04-12T04:48:04.439Z,12.16
2024-04-12T04:49:04.634Z,12.16
2024-04-12T04:50:04.328Z,12.19
2024-04-12T04:51:04.411Z,12.20
2024-04-12T04:52:04.350Z,12.18
2024-04-12T04:53:04.401Z,12.09
2024-04-12T04:54:04.486Z,12.06
2024-04-12T04:55:04.497Z,12.02
2024-04-12T04:56:04.480Z,11.99
2024-04-12T04:57:04.689Z,12.01
2024-04-12T04:58:04.590Z,11.98
2024-04-12T04:59:04.609Z,12.02
2024-04-12T05:00:04.668Z,12.06
2024-04-12T05:01:04.724Z,12.06
2024-04-12T05:02:04.725Z,12.09
2024-04-12T05:03:04.811Z,12.12
2024-04-12T05:04:04.849Z,12.13
2024-04-12T05:05:04.783Z,12.16
2024-04-12T05:06:04.824Z,12.19
2024-04-12T05:07:04.854Z,11.98
2024-04-12T05:08:04.904Z,11.88
2024-04-12T05:09:04.977Z,11.95
2024-04-12T05:10:05.027Z,11.95
2024-04-12T05:11:05.034Z,11.99
2024-04-12T05:12:05.123Z,12.02
2024-04-12T05:13:05.157Z,12.02
2024-04-12T05:14:05.931Z,12.08
2024-04-12T05:15:05.285Z,12.09
2024-04-12T05:16:05.267Z,12.09
2024-04-12T05:17:05.347Z,12.10
2024-04-12T05:18:05.803Z,12.16
2024-04-12T05:19:05.492Z,12.18
2024-04-12T05:20:05.467Z,12.18
2024-04-12T05:21:05.594Z,12.20
2024-04-12T05:22:05.556Z,12.22
2024-04-12T05:23:05.554Z,12.26
2024-04-12T05:24:05.616Z,12.27
2024-04-12T05:25:05.667Z,12.30
2024-04-12T05:26:05.728Z,12.30
2024-04-12T05:27:05.839Z,12.32
2024-04-12T05:28:05.779Z,12.27
2024-04-12T05:29:05.837Z,12.27
2024-04-12T05:30:05.937Z,12.35
2024-04-12T05:31:05.869Z,12.33
2024-04-12T05:32:06.025Z,12.36
2024-04-12T05:33:06.104Z,12.37
2024-04-12T05:34:06.022Z,12.40
2024-04-12T05:35:06.009Z,12.41
2024-04-12T05:36:06.111Z,12.46
2024-04-12T05:37:06.014Z,12.46
2024-04-12T05:38:06.058Z,12.44
2024-04-12T05:39:06.152Z,12.19
2024-04-12T05:40:06.171Z,12.08
2024-04-12T05:41:06.905Z,12.05
2024-04-12T05:42:06.394Z,11.98
2024-04-12T05:43:06.275Z,11.98
2024-04-12T05:44:06.296Z,11.86
2024-04-12T05:45:06.372Z,11.81
2024-04-12T05:46:06.391Z,11.84
2024-04-12T05:47:06.390Z,11.88
2024-04-12T05:48:06.493Z,11.89
2024-04-12T05:49:06.439Z,11.92
2024-04-12T05:50:06.522Z,11.89
2024-04-12T05:51:06.479Z,11.89
2024-04-12T05:52:06.508Z,11.98
2024-04-12T05:53:06.485Z,12.01
2024-04-12T05:54:06.559Z,12.01
2024-04-12T05:55:06.531Z,11.88
2024-04-12T05:56:06.553Z,11.58
2024-04-12T05:57:06.588Z,11.53
2024-04-12T05:58:06.619Z,11.68
2024-04-12T05:59:06.639Z,11.78
2024-04-12T06:00:06.709Z,11.82
2024-04-12T06:01:06.705Z,11.73
2024-04-12T06:02:06.752Z,11.53
2024-04-12T06:03:06.775Z,11.61
2024-04-12T06:04:06.785Z,11.50
2024-04-12T06:05:06.741Z,11.51
2024-04-12T06:06:06.876Z,11.64
2024-04-12T06:07:06.769Z,11.57
2024-04-12T06:08:06.775Z,11.60
2024-04-12T06:09:10.302Z,11.66
2024-04-12T06:10:07.813Z,11.77
2024-04-12T06:11:06.786Z,11.78
2024-04-12T06:12:06.974Z,11.70
2024-04-12T06:13:06.811Z,11.86
2024-04-12T06:14:06.834Z,11.99
2024-04-12T06:15:06.819Z,12.09
2024-04-12T06:16:06.881Z,12.22
2024-04-12T06:17:06.815Z,12.29
2024-04-12T06:18:06.931Z,12.40
2024-04-12T06:19:06.829Z,12.46
2024-04-12T06:20:06.818Z,12.54
2024-04-12T06:21:06.914Z,12.60
2024-04-12T06:22:06.829Z,12.61
2024-04-12T06:23:06.919Z,12.67
2024-04-12T06:24:06.998Z,12.63
2024-04-12T06:25:07.007Z,12.65
2024-04-12T06:26:07.102Z,12.68
2024-04-12T06:27:07.146Z,12.70
2024-04-12T06:28:07.095Z,12.75
2024-04-12T06:29:08.595Z,12.81
2024-04-12T06:30:07.192Z,12.85
2024-04-12T06:31:07.191Z,12.89
2024-04-12T06:32:07.228Z,12.91
2024-04-12T06:33:07.298Z,12.92
2024-04-12T06:34:07.312Z,12.96
2024-04-12T06:35:07.155Z,12.96
2024-04-12T06:36:07.540Z,12.98
2024-04-12T06:37:07.495Z,13.00
2024-04-12T06:38:07.340Z,12.99
2024-04-12T06:39:07.366Z,12.96
2024-04-12T06:40:07.160Z,13.00
2024-04-12T06:41:07.175Z,13.00
2024-04-12T06:42:07.398Z,13.03
2024-04-12T06:43:09.744Z,13.02
2024-04-12T06:44:07.151Z,13.05
2024-04-12T06:45:07.331Z,13.08
2024-04-12T06:46:07.184Z,13.12
2024-04-12T06:47:07.490Z,13.10
2024-04-12T06:48:07.191Z,13.06
2024-04-12T06:49:07.189Z,12.75
2024-04-12T06:50:07.172Z,12.63
2024-04-12T06:51:07.443Z,12.47
2024-04-12T06:52:07.181Z,12.61
2024-04-12T06:53:07.318Z,12.63
2024-04-12T06:54:09.360Z,12.48
2024-04-12T06:55:07.319Z,12.58
2024-04-12T06:56:07.194Z,12.58
2024-04-12T06:57:07.222Z,12.57
2024-04-12T06:58:07.206Z,12.70
2024-04-12T06:59:07.200Z,12.78
2024-04-12T07:00:07.281Z,12.82
2024-04-12T07:01:07.518Z,12.89
2024-04-12T07:02:07.301Z,13.00
2024-04-12T07:03:07.426Z,13.08
2024-04-12T07:04:07.565Z,13.13
2024-04-12T07:05:07.410Z,13.15
2024-04-12T07:06:07.570Z,13.20
2024-04-12T07:07:07.578Z,13.20
2024-04-12T07:08:07.602Z,13.22
2024-04-12T07:09:07.635Z,13.02
2024-04-12T07:10:07.776Z,13.03
2024-04-12T07:11:07.697Z,12.92
2024-04-12T07:12:07.741Z,12.92
2024-04-12T07:13:07.700Z,12.94
2024-04-12T07:14:07.729Z,13.00
2024-04-12T07:15:07.868Z,13.08
2024-04-12T07:16:07.759Z,13.15
2024-04-12T07:17:07.822Z,13.23
2024-04-12T07:18:35.581Z,13.05
2024-04-12T07:19:07.943Z,13.20
2024-04-12T07:23:49.466Z,13.32
2024-04-12T07:24:21.008Z,13.33
2024-04-12T07:25:20.875Z,13.17
2024-04-12T07:26:20.967Z,13.19
2024-04-12T07:27:20.907Z,13.29
2024-04-12T07:28:20.914Z,13.29
2024-04-12T07:29:20.888Z,13.29
2024-04-12T07:30:21.057Z,13.27
2024-04-12T07:31:20.917Z,13.20
2024-04-12T07:32:57.035Z,13.22
2024-04-12T07:33:21.056Z,13.32
2024-04-12T07:34:20.928Z,13.29
2024-04-12T07:35:20.914Z,13.19
2024-04-12T07:36:20.895Z,13.25
2024-04-12T07:37:20.934Z,13.23
2024-04-12T07:38:20.926Z,13.39
2024-04-12T07:39:20.926Z,13.43
2024-04-12T07:40:20.925Z,13.50
2024-04-12T07:41:20.898Z,13.62
2024-04-12T07:42:20.940Z,13.68
2024-04-12T07:43:21.453Z,13.75
2024-04-12T07:44:20.949Z,13.82
2024-04-12T07:45:20.930Z,13.89
2024-04-12T07:46:20.929Z,13.98
2024-04-12T07:47:20.987Z,14.02
2024-04-12T07:48:21.013Z,14.02
2024-04-12T07:49:20.925Z,14.08
2024-04-12T07:50:20.949Z,14.12
2024-04-12T07:51:20.963Z,14.09
2024-04-12T07:58:08.796Z,13.58
2024-04-12T09:07:43.260Z,15.55
2024-04-12T09:08:43.078Z,15.46
2024-04-12T09:09:44.450Z,15.50
2024-04-12T09:10:43.090Z,15.50
2024-04-12T09:11:43.264Z,15.47
2024-04-12T09:12:43.123Z,15.58
2024-04-12T09:13:43.086Z,15.66
2024-04-12T09:14:43.150Z,15.69
2024-04-12T09:15:43.180Z,15.74
2024-04-12T09:16:43.094Z,15.84
2024-04-12T09:17:43.349Z,15.92
2024-04-12T09:18:43.396Z,15.92
2024-04-12T09:19:43.253Z,15.89
2024-04-12T09:20:43.166Z,15.99
2024-04-12T09:21:43.103Z,15.85
2024-04-12T09:22:43.114Z,15.98
2024-04-12T09:23:43.176Z,16.00
2024-04-12T09:24:43.128Z,15.96
2024-04-12T09:25:43.162Z,15.75
2024-04-12T09:26:43.161Z,15.91
2024-04-12T09:27:43.258Z,16.03
2024-04-12T09:28:43.113Z,16.03
2024-04-12T09:29:43.175Z,16.19
2024-04-12T09:30:43.114Z,16.24
2024-04-12T09:31:43.123Z,16.26
2024-04-12T09:32:43.256Z,16.24
2024-04-12T09:33:43.289Z,16.27
2024-04-12T09:34:43.181Z,16.39
2024-04-12T09:35:43.153Z,16.47
2024-04-12T09:36:43.114Z,16.43
2024-04-12T09:37:43.137Z,16.43
2024-04-12T09:38:43.127Z,16.47
2024-04-12T09:39:43.195Z,16.41
2024-04-12T09:40:43.562Z,16.39
2024-04-12T09:41:43.228Z,16.44
2024-04-12T09:42:43.195Z,16.52
2024-04-12T09:43:43.360Z,16.58
2024-04-12T09:44:43.271Z,16.52
2024-04-12T09:45:43.330Z,16.45
2024-04-12T09:46:43.353Z,16.47
2024-04-12T09:47:43.483Z,16.51
2024-04-12T09:48:43.581Z,16.61
2024-04-12T09:49:43.552Z,16.50
2024-04-12T09:50:46.110Z,16.69
2024-04-12T09:51:43.635Z,16.74
2024-04-12T09:52:43.718Z,16.68
2024-04-12T09:53:43.575Z,16.67
2024-04-12T09:54:43.597Z,16.75
2024-04-12T09:55:43.595Z,16.83
2024-04-12T09:56:43.606Z,16.93
2024-04-12T09:57:43.611Z,16.79
2024-04-12T09:58:43.582Z,16.83
2024-04-12T09:59:44.278Z,17.01
2024-04-12T10:00:43.613Z,16.92
2024-04-12T10:01:43.595Z,16.88
2024-04-12T10:02:43.600Z,17.05
2024-04-12T10:03:43.743Z,17.14
2024-04-12T10:04:43.606Z,17.12
2024-04-12T10:05:44.997Z,17.16
2024-04-12T10:06:43.608Z,17.17
2024-04-12T10:07:43.625Z,17.23
2024-04-12T10:08:43.598Z,17.17
2024-04-12T10:09:43.601Z,17.30
2024-04-12T10:10:43.723Z,17.38
2024-04-12T10:11:43.654Z,17.34
2024-04-12T10:12:43.609Z,17.33
2024-04-12T10:13:44.299Z,17.29
2024-04-12T10:14:43.609Z,17.44
2024-04-12T10:15:43.618Z,17.48
2024-04-12T10:16:43.607Z,17.52
2024-04-12T10:17:43.718Z,17.55
2024-04-12T10:18:43.777Z,17.58
2024-04-12T10:19:43.600Z,17.64
2024-04-12T10:20:45.160Z,17.71
2024-04-12T10:21:43.642Z,17.75
2024-04-12T10:22:43.620Z,17.72
2024-04-12T10:23:43.660Z,17.55
2024-04-12T10:24:43.613Z,17.44
2024-04-12T10:25:43.651Z,17.60
2024-04-12T10:26:43.658Z,17.64
2024-04-12T10:27:43.746Z,17.57
2024-04-12T10:28:43.610Z,17.64
2024-04-12T10:29:43.631Z,17.68
2024-04-12T10:30:43.616Z,17.81
2024-04-12T10:31:43.626Z,17.82
2024-04-12T10:32:46.088Z,17.84
2024-04-12T10:33:43.754Z,17.69
2024-04-12T10:34:43.610Z,17.79
2024-04-12T10:35:43.634Z,17.90
2024-04-12T10:36:43.637Z,18.02
2024-04-12T10:37:43.622Z,17.99
2024-04-12T10:38:46.913Z,17.97
2024-04-12T10:39:43.655Z,18.07
2024-04-12T10:40:43.639Z,18.19
2024-04-12T10:41:43.686Z,18.21
2024-04-12T10:42:43.666Z,18.20
2024-04-12T10:43:43.620Z,18.13
2024-04-12T10:44:43.667Z,18.19
2024-04-12T10:45:44.616Z,18.20
2024-04-12T10:46:43.686Z,18.21
2024-04-12T10:47:43.733Z,18.33
2024-04-12T10:48:43.856Z,18.47
2024-04-12T10:49:43.779Z,18.50
2024-04-12T10:50:43.671Z,18.54
2024-04-12T10:51:43.668Z,18.59
2024-04-12T10:52:43.692Z,18.58
2024-04-12T10:53:43.672Z,18.54
2024-04-12T10:54:43.694Z,18.48
2024-04-12T10:55:43.651Z,18.40
2024-04-12T10:56:43.690Z,18.58
2024-04-12T10:57:43.682Z,18.72
2024-04-12T10:58:43.695Z,18.78
2024-04-12T10:59:43.790Z,18.93
2024-04-12T11:00:43.705Z,18.98
2024-04-12T11:01:43.706Z,18.99
2024-04-12T11:02:44.752Z,19.00
2024-04-12T11:03:43.776Z,19.07
2024-04-12T11:04:43.786Z,19.07
2024-04-12T11:05:43.696Z,19.16
2024-04-12T11:06:43.679Z,19.17
2024-04-12T11:07:43.683Z,19.28
2024-04-12T11:08:43.725Z,19.34
2024-04-12T11:09:43.749Z,19.34
2024-04-12T11:10:43.715Z,19.30
2024-04-12T11:11:43.727Z,19.27
2024-04-12T11:12:43.707Z,19.33
2024-04-12T11:13:43.693Z,19.33
2024-04-12T11:14:43.716Z,19.42
2024-04-12T11:15:43.687Z,19.42
2024-04-12T11:16:43.741Z,19.38
2024-04-12T11:17:43.781Z,19.38
2024-04-12T11:18:43.963Z,19.51
2024-04-12T11:19:43.724Z,19.50
2024-04-12T11:20:43.721Z,19.50
2024-04-12T11:21:43.688Z,19.57
2024-04-12T11:22:43.752Z,19.68
2024-04-12T11:23:43.725Z,19.75
2024-04-12T11:24:43.705Z,19.80
2024-04-12T11:25:43.707Z,19.66
2024-04-12T11:26:43.733Z,19.73
2024-04-12T11:27:43.711Z,19.71
2024-04-12T11:28:43.720Z,19.68
2024-04-12T11:29:43.725Z,19.66
2024-04-12T11:30:43.805Z,19.78
2024-04-12T11:31:43.708Z,19.85
2024-04-12T11:32:43.897Z,19.93
2024-04-12T11:33:48.376Z,19.92
2024-04-12T11:34:44.775Z,19.99
2024-04-12T11:35:43.777Z,19.95
2024-04-12T11:36:43.835Z,19.95
2024-04-12T11:37:46.829Z,20.01
2024-04-12T11:38:43.812Z,20.12
2024-04-12T11:39:43.731Z,20.13
2024-04-12T11:40:43.735Z,20.07
2024-04-12T11:41:43.790Z,20.13
2024-04-12T11:42:43.776Z,20.16
2024-04-12T11:43:43.738Z,20.27
2024-04-12T11:44:43.744Z,20.28
2024-04-12T11:45:44.667Z,20.37
2024-04-12T11:46:43.734Z,20.38
2024-04-12T11:47:43.862Z,20.33
2024-04-12T11:48:43.779Z,20.35
2024-04-12T11:49:43.732Z,20.35
2024-04-12T11:50:43.804Z,20.42
2024-04-12T11:51:43.735Z,20.30
2024-04-12T11:52:43.760Z,20.25
2024-04-12T11:53:43.796Z,20.40
2024-04-12T11:54:43.829Z,20.44
2024-04-12T11:55:43.864Z,20.35
2024-04-12T11:56:43.902Z,20.50
2024-04-12T11:57:43.916Z,20.56
2024-04-12T11:58:43.983Z,20.65
2024-04-12T11:59:44.090Z,20.67
2024-04-12T12:00:44.231Z,20.76
2024-04-12T12:01:44.119Z,20.62
2024-04-12T12:02:44.820Z,20.56
2024-04-12T12:03:44.218Z,20.61
2024-04-12T12:04:44.170Z,20.69
2024-04-12T12:05:44.264Z,20.85
2024-04-12T12:06:44.259Z,20.85
2024-04-12T12:07:44.304Z,20.80
2024-04-12T12:08:44.432Z,20.83
2024-04-12T12:09:44.382Z,20.68
2024-04-12T12:10:44.455Z,20.76
2024-04-12T12:11:44.631Z,20.94
2024-04-12T12:12:44.625Z,20.89
2024-04-12T12:13:44.551Z,20.92
2024-04-12T12:14:44.594Z,20.75
2024-04-12T12:15:44.618Z,20.90
2024-04-12T12:16:44.665Z,20.97
2024-04-12T12:17:44.830Z,21.00
2024-04-12T12:18:44.872Z,21.02
2024-04-12T12:19:44.744Z,21.14
2024-04-12T12:20:44.826Z,21.34
2024-04-12T12:21:44.838Z,21.37
2024-04-12T12:22:44.914Z,21.41
2024-04-12T12:23:44.924Z,21.47
2024-04-12T12:24:44.966Z,21.58
2024-04-12T12:25:44.995Z,21.44
2024-04-12T12:26:45.090Z,21.59
2024-04-12T12:27:45.116Z,21.65
2024-04-12T12:28:45.171Z,21.64
2024-04-12T12:29:45.246Z,21.59
2024-04-12T12:30:45.262Z,21.66
2024-04-12T12:31:45.276Z,21.72
2024-04-12T12:32:45.417Z,21.45
2024-04-12T12:33:45.402Z,21.59
2024-04-12T12:34:45.394Z,21.72
2024-04-12T12:35:45.467Z,21.75
2024-04-12T12:36:45.489Z,21.79
2024-04-12T12:37:45.518Z,21.83
2024-04-12T12:38:45.569Z,21.73
2024-04-12T12:39:45.570Z,21.78
2024-04-12T12:40:45.639Z,21.73
2024-04-12T12:41:45.737Z,21.64
2024-04-12T12:42:45.736Z,21.65
2024-04-12T12:43:46.131Z,21.78
2024-04-12T12:44:45.847Z,21.85
2024-04-12T12:45:45.866Z,21.95
2024-04-12T12:46:45.886Z,22.01
2024-04-12T12:47:45.973Z,22.04
2024-04-12T12:48:46.116Z,22.13
2024-04-12T12:49:46.003Z,22.16
2024-04-12T12:50:46.031Z,22.00
2024-04-12T12:51:46.104Z,22.11
2024-04-12T12:52:47.863Z,22.11
2024-04-12T12:53:46.176Z,22.07
2024-04-12T12:54:46.267Z,22.24
2024-04-12T12:55:46.291Z,22.23
2024-04-12T12:56:46.366Z,22.23
2024-04-12T12:57:46.390Z,22.17
2024-04-12T12:58:46.384Z,22.31
2024-04-12T12:59:46.521Z,22.47
2024-04-12T13:00:46.827Z,22.27
2024-04-12T13:01:46.518Z,22.13
2024-04-12T13:02:46.628Z,22.25
2024-04-12T13:03:46.665Z,22.27
2024-04-12T13:04:46.724Z,22.44
2024-04-12T13:05:46.749Z,22.61
2024-04-12T13:06:46.778Z,22.43
2024-04-12T13:07:46.900Z,22.50
2024-04-12T13:08:46.864Z,22.72
2024-04-12T13:09:46.862Z,22.79
2024-04-12T13:10:46.899Z,22.93
2024-04-12T13:11:46.926Z,22.86
2024-04-12T13:12:46.995Z,23.04
2024-04-12T13:13:47.016Z,23.03
2024-04-12T13:14:47.106Z,22.97
2024-04-12T13:15:47.079Z,22.99
2024-04-12T13:16:47.111Z,22.92
2024-04-12T13:17:52.296Z,22.96
2024-04-12T13:18:47.572Z,23.10
2024-04-12T13:19:47.161Z,23.15
2024-04-12T13:20:47.235Z,23.13
2024-04-12T13:21:47.169Z,23.00
2024-04-12T13:22:47.169Z,22.99
2024-04-12T13:23:47.196Z,22.89
2024-04-12T13:24:47.248Z,23.03
2024-04-12T13:25:47.297Z,23.04
2024-04-12T13:26:47.359Z,23.07
2024-04-12T13:27:47.364Z,23.00
2024-04-12T13:28:47.380Z,22.99
2024-04-12T13:29:47.463Z,23.06
2024-04-12T13:30:47.485Z,22.92
2024-04-12T13:31:47.505Z,22.97
2024-04-12T13:32:47.645Z,23.04
2024-04-12T13:33:47.607Z,23.18
2024-04-12T13:34:47.633Z,23.17
2024-04-12T13:35:47.725Z,23.17
2024-04-12T13:36:47.682Z,23.23
2024-04-12T13:37:55.377Z,23.35
2024-04-12T13:38:55.423Z,23.44
2024-04-12T13:39:55.372Z,23.35
2024-04-12T13:40:55.374Z,23.52
2024-04-12T13:47:48.402Z,23.38
2024-04-12T13:48:17.185Z,23.38
2024-04-12T13:49:17.118Z,23.40
2024-04-12T13:50:17.124Z,23.44
2024-04-12T13:51:17.202Z,23.49
2024-04-12T13:52:17.138Z,23.58
2024-04-12T13:53:18.524Z,23.62
2024-04-12T13:54:17.295Z,23.75
2024-04-12T13:55:17.301Z,23.90
2024-04-12T14:08:51.677Z,23.83
2024-04-12T14:09:21.979Z,24.00
2024-04-12T14:10:19.298Z,24.14
2024-04-12T14:11:19.335Z,24.10
2024-04-12T14:12:19.431Z,24.13
2024-04-12T14:13:19.353Z,24.19
2024-04-12T14:14:19.292Z,24.10
2024-04-12T14:15:22.426Z,24.23
2024-04-12T14:16:20.402Z,24.09
2024-04-12T14:17:19.303Z,24.19
2024-04-12T14:18:19.411Z,24.19
2024-04-12T14:19:19.919Z,24.10
2024-04-12T14:20:19.313Z,24.00
2024-04-12T14:21:21.975Z,23.99
2024-04-12T14:22:19.297Z,24.02
2024-04-12T14:23:19.328Z,23.90
2024-04-12T14:24:19.348Z,24.02
2024-04-12T14:25:19.303Z,24.02
2024-04-12T14:26:19.321Z,24.10
2024-04-12T14:27:23.059Z,24.11
2024-04-12T14:28:20.335Z,24.25